createdAt,value
2018-04-07T00:00:32.498Z,5.20
2018-04-07T00:03:02.832Z,5.20
2018-04-07T00:05:33.541Z,5.20
2018-04-07T00:08:03.175Z,5.10
2018-04-07T00:10:32.960Z,5.20
2018-04-07T00:13:02.882Z,5.30
2018-04-07T00:15:32.627Z,5.30
2018-04-07T00:18:02.090Z,5.30
2018-04-07T00:20:31.965Z,5.20
2018-04-07T00:23:02.676Z,5.30
2018-04-07T00:25:32.840Z,5.20
2018-04-07T00:28:02.876Z,5.30
2018-04-07T00:30:32.548Z,5.30
2018-04-07T00:33:02.281Z,5.20
2018-04-07T00:35:31.984Z,5.20
2018-04-07T00:38:01.716Z,5.20
2018-04-07T00:40:31.397Z,5.20
2018-04-07T00:43:01.447Z,5.10
2018-04-07T00:45:31.055Z,5.10
2018-04-07T00:48:05.869Z,5.10
2018-04-07T00:50:35.693Z,5.00
2018-04-07T00:53:05.701Z,5.00
2018-04-07T00:55:36.291Z,4.90
2018-04-07T00:58:06.913Z,4.90
2018-04-07T01:00:37.439Z,4.90
2018-04-07T01:04:26.217Z,4.90
2018-04-07T01:06:56.363Z,4.90
2018-04-07T01:09:25.904Z,4.80
2018-04-07T01:11:55.698Z,4.90
2018-04-07T01:14:25.427Z,4.90
2018-04-07T01:16:59.452Z,4.90
2018-04-07T01:19:28.844Z,4.80
2018-04-07T01:21:58.283Z,4.80
2018-04-07T01:24:28.515Z,4.80
2018-04-07T01:27:00.770Z,4.80
2018-04-07T01:29:30.680Z,4.80
2018-04-07T01:32:00.890Z,4.70
2018-04-07T01:34:30.141Z,4.70
2018-04-07T01:37:05.431Z,4.70
2018-04-07T01:39:35.170Z,4.70
2018-04-07T01:42:04.752Z,4.60
2018-04-07T01:44:34.268Z,4.50
2018-04-07T01:47:04.273Z,4.30
2018-04-07T01:49:33.745Z,4.30
2018-04-07T01:52:04.139Z,4.30
2018-04-07T01:54:33.371Z,4.30
2018-04-07T01:57:03.687Z,4.40
2018-04-07T01:59:33.167Z,4.30
2018-04-07T02:02:03.267Z,4.40
2018-04-07T02:04:33.335Z,4.30
2018-04-07T02:07:02.684Z,4.20
2018-04-07T02:09:32.701Z,4.20
2018-04-07T02:12:02.764Z,4.20
2018-04-07T02:14:32.642Z,4.10
2018-04-07T02:17:02.169Z,4.20
2018-04-07T02:19:31.519Z,4.20
2018-04-07T02:22:00.906Z,4.20
2018-04-07T02:24:30.970Z,4.20
2018-04-07T02:27:00.183Z,4.10
2018-04-07T02:29:29.327Z,4.10
2018-04-07T02:31:58.578Z,4.10
2018-04-07T02:34:27.863Z,4.10
2018-04-07T02:37:00.260Z,4.10
2018-04-07T02:39:32.738Z,4.00
2018-04-07T02:42:02.205Z,4.10
2018-04-07T02:44:31.658Z,4.10
2018-04-07T02:47:00.971Z,4.20
2018-04-07T02:49:30.527Z,4.20
2018-04-07T02:51:59.732Z,4.10
2018-04-07T02:54:29.531Z,4.00
2018-04-07T02:57:05.697Z,3.90
2018-04-07T02:59:34.806Z,4.00
2018-04-07T03:02:04.236Z,3.90
2018-04-07T03:04:34.226Z,3.80
2018-04-07T03:07:03.768Z,3.70
2018-04-07T03:09:32.909Z,3.70
2018-04-07T03:12:02.221Z,3.70
2018-04-07T03:14:32.303Z,3.60
2018-04-07T03:17:01.448Z,3.60
2018-04-07T03:19:30.542Z,3.60
2018-04-07T03:21:59.583Z,3.60
2018-04-07T03:24:29.288Z,3.40
2018-04-07T03:26:58.400Z,3.30
2018-04-07T03:29:28.742Z,3.30
2018-04-07T03:31:59.017Z,3.20
2018-04-07T03:34:28.391Z,3.20
2018-04-07T03:36:57.878Z,3.20
2018-04-07T03:39:27.087Z,3.10
2018-04-07T03:41:56.241Z,3.00
2018-04-07T03:44:26.444Z,3.10
2018-04-07T03:46:55.644Z,3.10
2018-04-07T03:49:25.151Z,3.30
2018-04-07T03:51:54.607Z,3.40
2018-04-07T03:54:24.290Z,3.40
2018-04-07T03:56:54.669Z,3.30
2018-04-07T03:59:23.669Z,3.20
2018-04-07T04:01:53.033Z,3.30
2018-04-07T04:04:22.810Z,3.30
2018-04-07T04:06:52.642Z,3.40
2018-04-07T04:09:22.501Z,3.50
2018-04-07T04:11:51.732Z,3.40
2018-04-07T04:14:21.774Z,3.60
2018-04-07T04:16:51.818Z,3.50
2018-04-07T04:19:20.861Z,3.50
2018-04-07T04:21:49.865Z,3.50
2018-04-07T04:24:20.072Z,3.50
2018-04-07T04:26:49.407Z,3.40
2018-04-07T04:29:18.833Z,3.50
2018-04-07T04:31:47.866Z,3.50
2018-04-07T04:34:17.060Z,3.50
2018-04-07T04:36:46.435Z,3.50
2018-04-07T04:39:15.819Z,3.50
2018-04-07T04:41:44.930Z,3.50
2018-04-07T04:44:13.933Z,3.50
2018-04-07T04:46:42.996Z,3.50
2018-04-07T04:49:12.044Z,3.60
2018-04-07T04:51:46.333Z,3.50
2018-04-07T04:54:21.987Z,3.40
2018-04-07T04:56:51.686Z,3.40
2018-04-07T04:59:20.716Z,3.40
2018-04-07T05:01:49.859Z,3.40
2018-04-07T05:04:18.991Z,3.50
2018-04-07T05:06:48.031Z,3.50
2018-04-07T05:09:18.160Z,3.60
2018-04-07T05:11:53.070Z,3.50
2018-04-07T05:14:23.219Z,3.70
2018-04-07T05:16:52.641Z,3.70
2018-04-07T05:19:21.956Z,3.90
2018-04-07T05:21:51.147Z,4.20
2018-04-07T05:24:20.921Z,4.40
2018-04-07T05:26:53.462Z,4.60
2018-04-07T05:29:22.843Z,4.70
2018-04-07T05:31:56.516Z,4.70
2018-04-07T05:34:26.359Z,4.80
2018-04-07T05:36:55.671Z,5.00
2018-04-07T05:39:25.381Z,4.90
2018-04-07T05:41:54.979Z,5.00
2018-04-07T05:44:25.269Z,5.20
2018-04-07T05:46:54.859Z,5.20
2018-04-07T05:49:24.595Z,5.20
2018-04-07T05:51:54.074Z,5.30
2018-04-07T05:54:23.836Z,5.50
2018-04-07T05:56:53.660Z,5.50
2018-04-07T05:59:22.899Z,5.70
2018-04-07T06:01:52.549Z,5.90
2018-04-07T06:04:22.062Z,6.30
2018-04-07T06:06:51.537Z,6.60
2018-04-07T06:09:21.227Z,6.70
2018-04-07T06:11:50.673Z,6.60
2018-04-07T06:14:20.061Z,6.60
2018-04-07T06:16:50.299Z,7.20
2018-04-07T06:19:19.986Z,7.20
2018-04-07T06:21:49.386Z,7.90
2018-04-07T06:24:18.900Z,8.40
2018-04-07T06:26:48.729Z,8.50
2018-04-07T06:29:18.830Z,8.50
2018-04-07T06:31:48.766Z,8.50
2018-04-07T06:34:18.446Z,8.70
2018-04-07T06:36:48.223Z,9.00
2018-04-07T06:39:18.565Z,9.30
2018-04-07T06:41:48.156Z,9.30
2018-04-07T06:44:18.703Z,9.80
2018-04-07T06:46:49.178Z,9.90
2018-04-07T06:49:19.550Z,9.70
2018-04-07T06:51:49.387Z,9.60
2018-04-07T06:54:19.530Z,9.30
2018-04-07T06:56:49.200Z,9.20
2018-04-07T06:59:18.851Z,9.10
2018-04-07T07:01:48.841Z,9.10
2018-04-07T07:04:18.445Z,9.30
2018-04-07T07:06:49.098Z,9.20
2018-04-07T07:09:18.960Z,9.20
2018-04-07T07:11:49.682Z,9.40
2018-04-07T07:14:19.491Z,9.30
2018-04-07T07:16:50.147Z,9.30
2018-04-07T07:19:20.119Z,9.20
2018-04-07T07:21:49.692Z,9.40
2018-04-07T07:24:19.484Z,9.80
2018-04-07T07:26:49.995Z,10.50
2018-04-07T07:29:20.325Z,11.00
2018-04-07T07:31:50.092Z,10.90
2018-04-07T07:34:19.777Z,10.60
2018-04-07T07:36:51.334Z,10.40
2018-04-07T07:39:21.008Z,10.30
2018-04-07T07:41:52.164Z,10.60
2018-04-07T07:44:22.001Z,10.70
2018-04-07T07:46:51.789Z,11.10
2018-04-07T07:49:21.607Z,11.30
2018-04-07T07:51:51.422Z,11.20
2018-04-07T07:54:21.263Z,11.10
2018-04-07T07:56:50.774Z,11.40
2018-04-07T07:59:20.480Z,11.70
2018-04-07T08:01:51.356Z,11.80
2018-04-07T08:04:21.605Z,11.80
2018-04-07T08:06:51.743Z,11.70
2018-04-07T08:09:21.435Z,12.00
2018-04-07T08:11:51.072Z,12.20
2018-04-07T08:14:21.494Z,12.10
2018-04-07T08:16:51.001Z,12.10
2018-04-07T08:19:21.507Z,12.90
2018-04-07T08:21:51.548Z,12.80
2018-04-07T08:24:21.311Z,12.80
2018-04-07T08:26:51.072Z,13.30
2018-04-07T08:29:20.817Z,13.50
2018-04-07T08:31:51.295Z,13.80
2018-04-07T08:34:21.733Z,13.70
2018-04-07T08:36:51.991Z,13.70
2018-04-07T08:39:22.670Z,13.90
2018-04-07T08:41:53.113Z,14.20
2018-04-07T08:44:23.928Z,14.60
2018-04-07T08:46:53.992Z,14.50
2018-04-07T08:49:24.642Z,14.50
2018-04-07T08:51:55.039Z,14.60
2018-04-07T08:54:24.680Z,14.60
2018-04-07T08:56:55.917Z,14.90
2018-04-07T08:59:26.332Z,15.10
2018-04-07T09:02:02.477Z,15.00
2018-04-07T09:04:32.100Z,15.20
2018-04-07T09:07:01.492Z,15.20
2018-04-07T09:09:31.283Z,15.50
2018-04-07T09:12:01.152Z,15.60
2018-04-07T09:14:30.683Z,15.70
2018-04-07T09:17:00.358Z,15.70
2018-04-07T09:19:38.108Z,16.10
2018-04-07T09:22:07.954Z,16.10
2018-04-07T09:24:37.840Z,16.20
2018-04-07T09:27:08.452Z,17.70
2018-04-07T09:29:38.235Z,17.60
2018-04-07T09:32:09.456Z,18.30
2018-04-07T09:34:39.297Z,18.40
2018-04-07T09:37:08.827Z,18.10
2018-04-07T09:39:38.850Z,17.70
2018-04-07T09:42:08.604Z,18.20
2018-04-07T09:44:38.276Z,19.10
2018-04-07T09:47:13.324Z,19.60
2018-04-07T09:49:43.155Z,19.60
2018-04-07T09:52:13.102Z,20.10
2018-04-07T09:54:42.861Z,20.20
2018-04-07T09:57:12.484Z,20.60
2018-04-07T09:59:42.074Z,21.10
2018-04-07T10:02:16.087Z,21.20
2018-04-07T10:04:46.527Z,21.30
2018-04-07T10:07:16.168Z,21.20
2018-04-07T10:09:46.710Z,23.70
2018-04-07T10:12:16.309Z,23.60
2018-04-07T10:14:46.071Z,23.50
2018-04-07T10:17:16.161Z,22.80
2018-04-07T10:19:46.495Z,23.10
2018-04-07T10:22:17.452Z,23.20
2018-04-07T10:24:47.224Z,23.10
2018-04-07T10:27:23.131Z,22.80
2018-04-07T10:29:56.344Z,22.60
2018-04-07T10:32:26.802Z,23.60
2018-04-07T10:34:57.619Z,23.50
2018-04-07T10:37:29.153Z,24.00
2018-04-07T10:39:59.691Z,24.50
2018-04-07T10:42:30.085Z,24.60
2018-04-07T10:44:59.631Z,24.60
2018-04-07T10:47:29.998Z,23.60
2018-04-07T10:49:59.383Z,23.50
2018-04-07T10:52:29.287Z,23.90
2018-04-07T10:54:58.960Z,23.60
2018-04-07T10:57:38.192Z,23.30
2018-04-07T11:00:08.815Z,22.20
2018-04-07T11:02:38.612Z,22.10
2018-04-07T11:05:08.482Z,22.50
2018-04-07T11:07:38.837Z,22.10
2018-04-07T11:10:08.745Z,22.00
2018-04-07T11:15:15.904Z,21.10
2018-04-07T11:17:46.492Z,20.90
2018-04-07T11:20:16.816Z,20.90
2018-04-07T11:22:47.386Z,21.00
2018-04-07T11:25:17.721Z,21.00
2018-04-07T11:27:48.681Z,21.20
2018-04-07T11:30:18.448Z,21.10
2018-04-07T11:32:49.139Z,20.50
2018-04-07T11:35:18.935Z,20.40
2018-04-07T11:37:49.434Z,20.30
2018-04-07T11:40:19.753Z,20.30
2018-04-07T11:42:50.599Z,20.40
2018-04-07T11:45:21.214Z,20.30
2018-04-07T11:47:50.904Z,20.20
2018-04-07T11:50:21.147Z,20.60
2018-04-07T11:52:51.807Z,20.30
2018-04-07T11:55:21.408Z,20.20
2018-04-07T11:57:51.214Z,20.20
2018-04-07T12:00:21.620Z,19.90
2018-04-07T12:02:52.042Z,20.00
2018-04-07T12:05:21.564Z,20.00
2018-04-07T12:07:52.083Z,20.60
2018-04-07T12:10:21.910Z,20.50
2018-04-07T12:12:59.271Z,20.60
2018-04-07T12:15:28.975Z,20.80
2018-04-07T12:21:00.438Z,21.00
2018-04-07T12:23:32.916Z,21.00
2018-04-07T12:26:07.088Z,21.10
2018-04-07T12:28:38.550Z,21.10
2018-04-07T12:31:08.979Z,21.10
2018-04-07T12:33:38.835Z,21.30
2018-04-07T12:36:09.315Z,21.30
2018-04-07T12:38:39.059Z,21.30
2018-04-07T12:41:15.500Z,21.40
2018-04-07T12:43:45.047Z,21.50
2018-04-07T12:46:14.669Z,21.10
2018-04-07T12:48:45.215Z,20.70
2018-04-07T12:54:16.204Z,20.80
2018-04-07T12:56:45.997Z,20.80
2018-04-07T12:59:16.786Z,20.90
2018-04-07T13:01:47.768Z,21.20
2018-04-07T13:04:18.675Z,21.60
2018-04-07T13:06:48.858Z,21.60
2018-04-07T13:09:18.563Z,21.60
2018-04-07T13:11:49.513Z,22.20
2018-04-07T13:14:19.230Z,22.20
2018-04-07T13:16:48.795Z,22.40
2018-04-07T13:19:18.707Z,22.50
2018-04-07T13:21:48.599Z,22.80
2018-04-07T13:24:18.803Z,22.80
2018-04-07T13:26:49.012Z,22.90
2018-04-07T13:29:19.121Z,22.40
2018-04-07T13:31:48.957Z,22.10
2018-04-07T13:34:18.922Z,21.90
2018-04-07T13:36:49.757Z,21.60
2018-04-07T13:39:19.422Z,21.30
2018-04-07T13:41:49.187Z,21.20
2018-04-07T13:44:18.899Z,20.90
2018-04-07T13:46:48.738Z,20.80
2018-04-07T13:49:18.917Z,20.70
2018-04-07T13:51:48.721Z,20.50
2018-04-07T13:54:19.369Z,20.50
2018-04-07T13:56:49.057Z,20.40
2018-04-07T13:59:18.917Z,20.30
2018-04-07T14:01:48.736Z,20.50
2018-04-07T14:04:18.356Z,20.50
2018-04-07T14:06:47.989Z,20.60
2018-04-07T14:09:18.530Z,20.40
2018-04-07T14:11:49.509Z,20.40
2018-04-07T14:14:19.728Z,20.30
2018-04-07T14:16:50.340Z,20.50
2018-04-07T14:19:20.154Z,20.40
2018-04-07T14:21:49.853Z,20.50
2018-04-07T14:24:20.346Z,20.50
2018-04-07T14:26:50.672Z,20.50
2018-04-07T14:29:21.333Z,20.50
2018-04-07T14:31:50.964Z,20.50
2018-04-07T14:34:20.756Z,20.60
2018-04-07T14:36:51.384Z,20.60
2018-04-07T14:39:21.319Z,20.60
2018-04-07T14:41:52.137Z,20.70
2018-04-07T14:44:21.825Z,20.60
2018-04-07T14:46:51.653Z,20.60
2018-04-07T14:49:21.556Z,20.60
2018-04-07T14:51:51.134Z,20.60
2018-04-07T14:54:20.966Z,20.70
2018-04-07T14:56:51.580Z,20.60
2018-04-07T14:59:21.494Z,20.60
2018-04-07T15:01:51.112Z,20.60
2018-04-07T15:04:21.033Z,20.60
2018-04-07T15:06:51.462Z,20.60
2018-04-07T15:09:22.001Z,20.70
2018-04-07T15:11:52.557Z,20.50
2018-04-07T15:14:22.282Z,20.50
2018-04-07T15:16:52.920Z,20.50
2018-04-07T15:19:22.723Z,20.50
2018-04-07T15:21:52.323Z,20.60
2018-04-07T15:24:22.992Z,20.50
2018-04-07T15:26:52.811Z,20.40
2018-04-07T15:29:22.627Z,20.40
2018-04-07T15:31:53.171Z,20.50
2018-04-07T15:34:22.737Z,20.50
2018-04-07T15:36:52.386Z,20.60
2018-04-07T15:39:22.341Z,20.50
2018-04-07T15:41:51.936Z,20.40
2018-04-07T15:44:21.660Z,20.40
2018-04-07T15:46:51.541Z,20.50
2018-04-07T15:49:22.191Z,20.50
2018-04-07T15:51:52.092Z,20.50
2018-04-07T15:54:22.720Z,20.50
2018-04-07T15:56:52.728Z,20.40
2018-04-07T15:59:22.773Z,20.50
2018-04-07T16:01:53.213Z,20.30
2018-04-07T16:04:22.964Z,20.30
2018-04-07T16:06:52.785Z,20.30
2018-04-07T16:09:22.667Z,20.30
2018-04-07T16:11:52.595Z,20.30
2018-04-07T16:14:22.436Z,20.30
2018-04-07T16:16:53.027Z,20.40
2018-04-07T16:19:22.841Z,20.30
2018-04-07T16:21:52.344Z,20.30
2018-04-07T16:24:28.951Z,20.30
2018-04-07T16:26:59.475Z,20.20
2018-04-07T16:29:29.292Z,20.20
2018-04-07T16:31:58.739Z,20.20
2018-04-07T16:34:28.438Z,20.20
2018-04-07T16:36:58.290Z,20.20
2018-04-07T16:39:28.219Z,20.10
2018-04-07T16:41:58.207Z,20.10
2018-04-07T16:44:28.798Z,20.10
2018-04-07T16:47:02.111Z,20.00
2018-04-07T16:53:11.606Z,20.00
2018-04-07T16:55:41.358Z,20.00
2018-04-07T16:58:10.980Z,20.00
2018-04-07T17:00:40.887Z,19.90
2018-04-07T17:03:10.457Z,19.90
2018-04-07T17:05:40.147Z,19.80
2018-04-07T17:08:10.470Z,19.70
2018-04-07T17:10:39.881Z,19.60
2018-04-07T17:13:09.447Z,19.60
2018-04-07T17:15:39.340Z,19.50
2018-04-07T17:18:09.780Z,19.40
2018-04-07T17:20:39.674Z,19.30
2018-04-07T17:23:10.111Z,19.20
2018-04-07T17:25:39.831Z,19.10
2018-04-07T17:28:11.563Z,19.20
2018-04-07T17:30:41.088Z,19.00
2018-04-07T17:33:11.446Z,18.90
2018-04-07T17:35:42.238Z,18.80
2018-04-07T17:38:16.027Z,18.70
2018-04-07T17:40:46.343Z,18.60
2018-04-07T17:43:15.784Z,18.50
2018-04-07T17:45:45.263Z,18.50
2018-04-07T17:48:15.111Z,18.50
2018-04-07T17:50:44.675Z,18.40
2018-04-07T17:53:44.404Z,18.20
2018-04-07T17:56:49.527Z,18.10
2018-04-07T17:59:19.065Z,17.90
2018-04-07T18:01:50.780Z,17.60
2018-04-07T18:04:30.691Z,17.60
2018-04-07T18:07:00.301Z,17.50
2018-04-07T18:09:29.980Z,17.30
2018-04-07T18:11:59.576Z,17.20
2018-04-07T18:14:30.020Z,17.10
2018-04-07T18:17:00.594Z,16.80
2018-04-07T18:19:30.337Z,16.70
2018-04-07T18:21:59.843Z,16.70
2018-04-07T18:24:30.147Z,16.50
2018-04-07T18:26:59.572Z,16.40
2018-04-07T18:29:29.128Z,16.40
2018-04-07T18:31:58.666Z,16.20
2018-04-07T18:34:29.020Z,16.00
2018-04-07T18:37:00.530Z,15.90
2018-04-07T18:39:30.072Z,15.80
2018-04-07T18:42:00.314Z,15.80
2018-04-07T18:44:29.830Z,15.70
2018-04-07T18:46:59.163Z,15.70
2018-04-07T18:49:28.846Z,15.50
2018-04-07T18:51:58.349Z,15.50
2018-04-07T18:54:27.796Z,15.50
2018-04-07T18:56:57.191Z,15.50
2018-04-07T18:59:26.718Z,15.40
2018-04-07T19:01:56.572Z,15.30
2018-04-07T19:04:26.748Z,15.00
2018-04-07T19:06:56.974Z,14.90
2018-04-07T19:09:27.304Z,14.80
2018-04-07T19:11:56.750Z,14.70
2018-04-07T19:14:27.145Z,14.60
2018-04-07T19:16:56.824Z,14.50
2018-04-07T19:19:26.340Z,14.60
2018-04-07T19:21:56.540Z,14.60
2018-04-07T19:24:26.056Z,14.50
2018-04-07T19:26:55.408Z,14.60
2018-04-07T19:29:24.877Z,14.70
2018-04-07T19:31:54.379Z,14.80
2018-04-07T19:34:23.753Z,14.70
2018-04-07T19:36:53.107Z,14.70
2018-04-07T19:39:23.471Z,14.70
2018-04-07T19:41:52.860Z,14.60
2018-04-07T19:44:23.003Z,14.60
2018-04-07T19:46:53.128Z,14.60
2018-04-07T19:49:22.554Z,14.50
2018-04-07T19:51:52.383Z,14.50
2018-04-07T19:54:22.563Z,14.50
2018-04-07T19:56:52.095Z,14.50
2018-04-07T19:59:30.545Z,14.50
2018-04-07T20:02:00.889Z,14.40
2018-04-07T20:04:31.033Z,14.20
2018-04-07T20:07:01.287Z,14.10
2018-04-07T20:09:30.810Z,14.10
2018-04-07T20:12:01.462Z,14.10
2018-04-07T20:14:31.253Z,14.10
2018-04-07T20:17:01.696Z,14.00
2018-04-07T20:19:32.168Z,13.80
2018-04-07T20:22:01.788Z,13.80
2018-04-07T20:24:32.461Z,13.30
2018-04-07T20:27:02.706Z,13.20
2018-04-07T20:29:32.971Z,13.30
2018-04-07T20:32:02.446Z,13.20
2018-04-07T20:34:32.671Z,13.40
2018-04-07T20:37:02.123Z,13.40
2018-04-07T20:39:32.318Z,13.60
2018-04-07T20:42:13.458Z,13.60
2018-04-07T20:44:42.928Z,13.60
2018-04-07T20:47:12.998Z,13.90
2018-04-07T20:49:42.516Z,13.80
2018-04-07T20:52:12.838Z,14.10
2018-04-07T20:54:42.264Z,14.00
2018-04-07T20:57:12.448Z,14.20
2018-04-07T21:03:13.945Z,14.20
2018-04-07T21:05:43.493Z,14.30
2018-04-07T21:08:13.318Z,14.30
2018-04-07T21:10:42.758Z,14.50
2018-04-07T21:13:12.129Z,14.50
2018-04-07T21:15:41.648Z,14.40
2018-04-07T21:18:11.100Z,14.30
2018-04-07T21:20:41.345Z,14.20
2018-04-07T21:23:10.844Z,14.10
2018-04-07T21:25:40.931Z,14.10
2018-04-07T21:28:12.315Z,14.00
2018-04-07T21:30:41.720Z,13.90
2018-04-07T21:33:11.363Z,13.80
2018-04-07T21:35:40.775Z,13.70
2018-04-07T21:38:10.300Z,13.70
2018-04-07T21:40:39.719Z,13.60
2018-04-07T21:43:09.995Z,13.70
2018-04-07T21:45:39.496Z,13.70
2018-04-07T21:48:09.882Z,13.60
2018-04-07T21:50:39.370Z,13.50
2018-04-07T21:53:10.153Z,13.40
2018-04-07T21:55:39.540Z,13.30
2018-04-07T21:58:09.407Z,13.30
2018-04-07T22:00:38.944Z,13.30
2018-04-07T22:03:08.348Z,13.20
2018-04-07T22:05:37.833Z,13.10
2018-04-07T22:08:07.470Z,13.00
2018-04-07T22:10:37.038Z,13.00
2018-04-07T22:13:07.212Z,13.00
2018-04-07T22:15:36.736Z,12.90
2018-04-07T22:18:10.194Z,13.00
2018-04-07T22:20:39.795Z,13.00
2018-04-07T22:23:10.158Z,13.30
2018-04-07T22:28:33.763Z,13.70
2018-04-07T22:31:03.500Z,13.70
2018-04-07T22:33:34.690Z,13.80
2018-04-07T22:36:04.687Z,13.80
2018-04-07T22:38:35.319Z,13.60
2018-04-07T22:41:06.391Z,13.00
2018-04-07T22:43:36.018Z,13.00
2018-04-07T22:46:11.136Z,12.80
2018-04-07T22:48:41.676Z,12.50
2018-04-07T22:51:11.458Z,12.40
2018-04-07T22:53:41.469Z,12.30
2018-04-07T22:56:10.992Z,12.10
2018-04-07T22:58:40.713Z,12.00
2018-04-07T23:01:10.419Z,12.00
2018-04-07T23:47:21.864Z,11.60
2018-04-07T23:49:52.657Z,10.80
2018-04-07T23:52:23.231Z,10.60
2018-04-07T23:54:53.107Z,10.60
2018-04-07T23:57:23.644Z,10.50
2018-04-07T23:59:54.410Z,10.50
